sensor_id;sensor_type;location;lat;lon;timestamp;temperature;humidity
1570;DHT22;778;50.120;8.698;2022-08-30T00:02:38;19.60;68.20
1570;DHT22;778;50.120;8.698;2022-08-30T00:05:07;19.60;68.70
1570;DHT22;778;50.120;8.698;2022-08-30T00:07:36;19.60;68.80
1570;DHT22;778;50.120;8.698;2022-08-30T00:10:07;19.60;69.10
1570;DHT22;778;50.120;8.698;2022-08-30T00:12:36;19.50;69.30
1570;DHT22;778;50.120;8.698;2022-08-30T00:15:05;19.50;69.60
1570;DHT22;778;50.120;8.698;2022-08-30T00:17:38;19.50;70.00
1570;DHT22;778;50.120;8.698;2022-08-30T00:20:11;19.50;70.00
1570;DHT22;778;50.120;8.698;2022-08-30T00:22:41;19.50;70.30
1570;DHT22;778;50.120;8.698;2022-08-30T00:25:11;19.50;70.80
1570;DHT22;778;50.120;8.698;2022-08-30T00:27:41;19.50;71.10
1570;DHT22;778;50.120;8.698;2022-08-30T00:30:13;19.40;71.60
1570;DHT22;778;50.120;8.698;2022-08-30T00:32:42;19.40;72.00
1570;DHT22;778;50.120;8.698;2022-08-30T00:35:12;19.40;72.60
1570;DHT22;778;50.120;8.698;2022-08-30T00:37:47;19.40;74.90
1570;DHT22;778;50.120;8.698;2022-08-30T00:40:19;19.50;75.90
1570;DHT22;778;50.120;8.698;2022-08-30T00:42:54;19.60;74.30
1570;DHT22;778;50.120;8.698;2022-08-30T00:45:28;19.60;74.80
1570;DHT22;778;50.120;8.698;2022-08-30T00:47:59;19.60;74.80
1570;DHT22;778;50.120;8.698;2022-08-30T00:50:32;19.60;75.10
1570;DHT22;778;50.120;8.698;2022-08-30T00:53:04;19.50;75.20
1570;DHT22;778;50.120;8.698;2022-08-30T00:55:36;19.60;77.30
1570;DHT22;778;50.120;8.698;2022-08-30T00:58:12;19.70;76.80
1570;DHT22;778;50.120;8.698;2022-08-30T01:00:46;19.80;76.40
1570;DHT22;778;50.120;8.698;2022-08-30T01:03:16;19.80;76.50
1570;DHT22;778;50.120;8.698;2022-08-30T01:05:45;19.70;76.00
1570;DHT22;778;50.120;8.698;2022-08-30T01:08:15;19.80;77.10
1570;DHT22;778;50.120;8.698;2022-08-30T01:10:45;19.70;76.50
1570;DHT22;778;50.120;8.698;2022-08-30T01:13:14;19.80;78.00
1570;DHT22;778;50.120;8.698;2022-08-30T01:15:43;19.70;77.50
1570;DHT22;778;50.120;8.698;2022-08-30T01:18:13;19.50;79.00
1570;DHT22;778;50.120;8.698;2022-08-30T01:20:49;19.40;80.10
1570;DHT22;778;50.120;8.698;2022-08-30T01:23:24;19.20;81.80
1570;DHT22;778;50.120;8.698;2022-08-30T01:25:54;19.20;83.10
1570;DHT22;778;50.120;8.698;2022-08-30T01:28:25;19.20;83.30
1570;DHT22;778;50.120;8.698;2022-08-30T01:30:54;19.20;83.90
1570;DHT22;778;50.120;8.698;2022-08-30T01:33:23;19.20;84.30
1570;DHT22;778;50.120;8.698;2022-08-30T01:35:54;19.30;85.30
1570;DHT22;778;50.120;8.698;2022-08-30T01:38:27;19.50;85.20
1570;DHT22;778;50.120;8.698;2022-08-30T01:40:58;19.60;86.20
1570;DHT22;778;50.120;8.698;2022-08-30T01:43:27;19.50;85.60
1570;DHT22;778;50.120;8.698;2022-08-30T01:45:56;19.30;86.90
1570;DHT22;778;50.120;8.698;2022-08-30T01:48:24;19.30;88.80
1570;DHT22;778;50.120;8.698;2022-08-30T01:50:57;19.10;88.50
1570;DHT22;778;50.120;8.698;2022-08-30T01:53:27;19.00;90.00
1570;DHT22;778;50.120;8.698;2022-08-30T01:55:56;18.90;90.60
1570;DHT22;778;50.120;8.698;2022-08-30T01:58:25;18.80;91.20
1570;DHT22;778;50.120;8.698;2022-08-30T02:00:54;18.80;91.70
1570;DHT22;778;50.120;8.698;2022-08-30T02:03:24;18.90;92.00
1570;DHT22;778;50.120;8.698;2022-08-30T02:05:56;18.90;92.20
1570;DHT22;778;50.120;8.698;2022-08-30T02:08:24;18.90;92.60
1570;DHT22;778;50.120;8.698;2022-08-30T02:10:55;18.90;92.80
1570;DHT22;778;50.120;8.698;2022-08-30T02:13:25;18.90;93.10
1570;DHT22;778;50.120;8.698;2022-08-30T02:15:53;18.90;93.40
1570;DHT22;778;50.120;8.698;2022-08-30T02:18:24;18.80;93.70
1570;DHT22;778;50.120;8.698;2022-08-30T02:20:53;18.80;94.00
1570;DHT22;778;50.120;8.698;2022-08-30T02:23:21;18.80;94.20
1570;DHT22;778;50.120;8.698;2022-08-30T02:25:51;18.80;94.50
1570;DHT22;778;50.120;8.698;2022-08-30T02:28:20;18.80;95.00
1570;DHT22;778;50.120;8.698;2022-08-30T02:30:50;18.80;95.20
1570;DHT22;778;50.120;8.698;2022-08-30T02:33:19;18.80;95.30
1570;DHT22;778;50.120;8.698;2022-08-30T02:35:48;18.80;95.70
1570;DHT22;778;50.120;8.698;2022-08-30T02:38:16;18.70;96.20
1570;DHT22;778;50.120;8.698;2022-08-30T02:40:46;18.70;96.50
1570;DHT22;778;50.120;8.698;2022-08-30T02:43:17;18.70;96.80
1570;DHT22;778;50.120;8.698;2022-08-30T02:45:46;18.60;97.10
1570;DHT22;778;50.120;8.698;2022-08-30T02:48:14;18.60;97.60
1570;DHT22;778;50.120;8.698;2022-08-30T02:50:45;18.60;98.10
1570;DHT22;778;50.120;8.698;2022-08-30T02:53:15;18.60;98.40
1570;DHT22;778;50.120;8.698;2022-08-30T02:55:44;18.60;98.80
1570;DHT22;778;50.120;8.698;2022-08-30T02:58:12;18.50;99.10
1570;DHT22;778;50.120;8.698;2022-08-30T03:00:42;18.50;99.60
1570;DHT22;778;50.120;8.698;2022-08-30T03:03:11;18.40;99.90
1570;DHT22;778;50.120;8.698;2022-08-30T03:05:39;18.40;99.90
1570;DHT22;778;50.120;8.698;2022-08-30T03:08:08;18.40;99.90
1570;DHT22;778;50.120;8.698;2022-08-30T03:10:37;18.40;99.90
1570;DHT22;778;50.120;8.698;2022-08-30T03:13:05;18.30;99.90
1570;DHT22;778;50.120;8.698;2022-08-30T03:15:36;18.20;99.90
1570;DHT22;778;50.120;8.698;2022-08-30T03:18:07;18.10;99.90
1570;DHT22;778;50.120;8.698;2022-08-30T03:20:36;18.10;99.90
1570;DHT22;778;50.120;8.698;2022-08-30T03:23:07;18.10;99.90
1570;DHT22;778;50.120;8.698;2022-08-30T03:25:47;18.10;99.90
1570;DHT22;778;50.120;8.698;2022-08-30T03:28:16;18.10;99.90
1570;DHT22;778;50.120;8.698;2022-08-30T03:30:45;18.10;99.90
1570;DHT22;778;50.120;8.698;2022-08-30T03:33:15;18.00;99.90
1570;DHT22;778;50.120;8.698;2022-08-30T03:35:47;18.00;99.90
1570;DHT22;778;50.120;8.698;2022-08-30T03:38:16;18.00;99.90
1570;DHT22;778;50.120;8.698;2022-08-30T03:40:44;18.00;99.90
1570;DHT22;778;50.120;8.698;2022-08-30T03:43:14;18.00;99.90
1570;DHT22;778;50.120;8.698;2022-08-30T03:45:42;18.00;99.90
1570;DHT22;778;50.120;8.698;2022-08-30T03:48:11;18.00;99.90
1570;DHT22;778;50.120;8.698;2022-08-30T03:50:41;18.00;99.90
1570;DHT22;778;50.120;8.698;2022-08-30T03:53:10;18.00;99.90
1570;DHT22;778;50.120;8.698;2022-08-30T03:55:39;17.90;99.90
1570;DHT22;778;50.120;8.698;2022-08-30T03:58:07;17.90;99.90
1570;DHT22;778;50.120;8.698;2022-08-30T04:00:36;17.90;99.90
1570;DHT22;778;50.120;8.698;2022-08-30T04:03:04;17.90;99.90
1570;DHT22;778;50.120;8.698;2022-08-30T04:05:33;18.00;99.90
1570;DHT22;778;50.120;8.698;2022-08-30T04:08:03;17.90;99.90
1570;DHT22;778;50.120;8.698;2022-08-30T04:10:32;17.90;99.90
1570;DHT22;778;50.120;8.698;2022-08-30T04:13:01;17.90;99.90
1570;DHT22;778;50.120;8.698;2022-08-30T04:15:29;17.90;99.90
1570;DHT22;778;50.120;8.698;2022-08-30T04:17:58;17.90;99.90
1570;DHT22;778;50.120;8.698;2022-08-30T04:20:26;17.90;99.90
1570;DHT22;778;50.120;8.698;2022-08-30T04:22:55;17.90;99.90
1570;DHT22;778;50.120;8.698;2022-08-30T04:25:25;17.80;99.90
1570;DHT22;778;50.120;8.698;2022-08-30T04:27:53;17.80;99.90
1570;DHT22;778;50.120;8.698;2022-08-30T04:30:22;17.70;99.90
1570;DHT22;778;50.120;8.698;2022-08-30T04:32:50;17.60;99.90
1570;DHT22;778;50.120;8.698;2022-08-30T04:35:24;17.60;99.90
1570;DHT22;778;50.120;8.698;2022-08-30T04:37:53;17.60;99.90
1570;DHT22;778;50.120;8.698;2022-08-30T04:40:21;17.60;99.90
1570;DHT22;778;50.120;8.698;2022-08-30T04:42:51;17.60;99.90
1570;DHT22;778;50.120;8.698;2022-08-30T04:45:20;17.60;99.90
1570;DHT22;778;50.120;8.698;2022-08-30T04:47:49;17.60;99.90
1570;DHT22;778;50.120;8.698;2022-08-30T04:50:19;17.70;99.90
1570;DHT22;778;50.120;8.698;2022-08-30T04:52:48;17.60;99.90
1570;DHT22;778;50.120;8.698;2022-08-30T04:55:17;17.60;99.90
1570;DHT22;778;50.120;8.698;2022-08-30T04:57:46;17.60;99.90
1570;DHT22;778;50.120;8.698;2022-08-30T05:00:17;17.60;99.90
1570;DHT22;778;50.120;8.698;2022-08-30T05:02:47;17.70;99.90
1570;DHT22;778;50.120;8.698;2022-08-30T05:05:16;17.60;99.90
1570;DHT22;778;50.120;8.698;2022-08-30T05:08:03;17.60;99.90
1570;DHT22;778;50.120;8.698;2022-08-30T05:10:32;17.60;99.90
1570;DHT22;778;50.120;8.698;2022-08-30T05:13:01;17.60;99.90
1570;DHT22;778;50.120;8.698;2022-08-30T05:15:31;17.60;99.90
1570;DHT22;778;50.120;8.698;2022-08-30T05:18:00;17.60;99.90
1570;DHT22;778;50.120;8.698;2022-08-30T05:20:29;17.60;99.90
1570;DHT22;778;50.120;8.698;2022-08-30T05:22:57;17.60;99.90
1570;DHT22;778;50.120;8.698;2022-08-30T05:25:28;17.70;99.90
1570;DHT22;778;50.120;8.698;2022-08-30T05:27:58;17.70;99.90
1570;DHT22;778;50.120;8.698;2022-08-30T05:30:30;17.70;99.90
1570;DHT22;778;50.120;8.698;2022-08-30T05:33:01;17.60;99.90
1570;DHT22;778;50.120;8.698;2022-08-30T05:35:29;17.60;99.90
1570;DHT22;778;50.120;8.698;2022-08-30T05:37:58;17.60;99.90
1570;DHT22;778;50.120;8.698;2022-08-30T05:40:27;17.70;99.90
1570;DHT22;778;50.120;8.698;2022-08-30T05:42:55;17.60;99.90
1570;DHT22;778;50.120;8.698;2022-08-30T05:45:23;17.50;99.90
1570;DHT22;778;50.120;8.698;2022-08-30T05:47:53;17.60;99.90
1570;DHT22;778;50.120;8.698;2022-08-30T05:50:22;17.60;99.90
1570;DHT22;778;50.120;8.698;2022-08-30T05:52:50;17.70;99.90
1570;DHT22;778;50.120;8.698;2022-08-30T05:55:19;17.70;99.90
1570;DHT22;778;50.120;8.698;2022-08-30T05:57:48;17.70;99.90
1570;DHT22;778;50.120;8.698;2022-08-30T06:00:17;17.70;99.90
1570;DHT22;778;50.120;8.698;2022-08-30T06:02:46;17.60;99.90
1570;DHT22;778;50.120;8.698;2022-08-30T06:05:16;17.70;99.90
1570;DHT22;778;50.120;8.698;2022-08-30T06:07:45;17.70;99.90
1570;DHT22;778;50.120;8.698;2022-08-30T06:10:13;17.70;99.90
1570;DHT22;778;50.120;8.698;2022-08-30T06:12:43;17.90;99.90
1570;DHT22;778;50.120;8.698;2022-08-30T06:15:11;17.90;99.90
1570;DHT22;778;50.120;8.698;2022-08-30T06:17:40;18.00;99.90
1570;DHT22;778;50.120;8.698;2022-08-30T06:20:10;18.10;99.90
1570;DHT22;778;50.120;8.698;2022-08-30T06:22:41;18.10;99.90
1570;DHT22;778;50.120;8.698;2022-08-30T06:25:10;18.20;99.90
1570;DHT22;778;50.120;8.698;2022-08-30T06:27:40;18.20;99.90
1570;DHT22;778;50.120;8.698;2022-08-30T06:30:09;18.30;99.90
1570;DHT22;778;50.120;8.698;2022-08-30T06:32:38;18.30;99.90
1570;DHT22;778;50.120;8.698;2022-08-30T06:35:07;18.40;99.90
1570;DHT22;778;50.120;8.698;2022-08-30T06:37:36;18.50;99.90
1570;DHT22;778;50.120;8.698;2022-08-30T06:40:07;18.60;99.90
1570;DHT22;778;50.120;8.698;2022-08-30T06:42:37;18.70;99.90
1570;DHT22;778;50.120;8.698;2022-08-30T06:45:06;19.00;99.90
1570;DHT22;778;50.120;8.698;2022-08-30T06:47:37;19.40;99.90
1570;DHT22;778;50.120;8.698;2022-08-30T06:50:08;20.00;99.90
1570;DHT22;778;50.120;8.698;2022-08-30T06:52:39;20.40;99.90
1570;DHT22;778;50.120;8.698;2022-08-30T06:55:12;20.90;99.90
1570;DHT22;778;50.120;8.698;2022-08-30T06:57:41;21.20;99.90
1570;DHT22;778;50.120;8.698;2022-08-30T07:00:12;21.40;99.10
1570;DHT22;778;50.120;8.698;2022-08-30T07:02:42;21.40;98.40
1570;DHT22;778;50.120;8.698;2022-08-30T07:05:11;21.50;98.40
1570;DHT22;778;50.120;8.698;2022-08-30T07:07:44;21.90;97.40
1570;DHT22;778;50.120;8.698;2022-08-30T07:10:14;21.80;96.70
1570;DHT22;778;50.120;8.698;2022-08-30T07:12:43;21.90;95.60
1570;DHT22;778;50.120;8.698;2022-08-30T07:15:12;22.00;95.20
1570;DHT22;778;50.120;8.698;2022-08-30T07:17:40;22.20;94.40
1570;DHT22;778;50.120;8.698;2022-08-30T07:20:26;22.30;93.30
1570;DHT22;778;50.120;8.698;2022-08-30T07:23:06;22.40;93.10
1570;DHT22;778;50.120;8.698;2022-08-30T07:25:37;22.20;93.50
1570;DHT22;778;50.120;8.698;2022-08-30T07:28:07;22.30;93.10
1570;DHT22;778;50.120;8.698;2022-08-30T07:30:36;22.20;92.80
1570;DHT22;778;50.120;8.698;2022-08-30T07:33:04;22.10;92.60
1570;DHT22;778;50.120;8.698;2022-08-30T07:35:33;22.00;92.50
1570;DHT22;778;50.120;8.698;2022-08-30T07:38:03;22.20;92.30
1570;DHT22;778;50.120;8.698;2022-08-30T07:40:31;22.50;91.30
1570;DHT22;778;50.120;8.698;2022-08-30T07:43:01;22.80;90.80
1570;DHT22;778;50.120;8.698;2022-08-30T07:45:29;23.20;90.00
1570;DHT22;778;50.120;8.698;2022-08-30T07:48:01;23.50;88.60
1570;DHT22;778;50.120;8.698;2022-08-30T07:50:30;23.90;86.20
1570;DHT22;778;50.120;8.698;2022-08-30T07:52:58;24.00;86.00
1570;DHT22;778;50.120;8.698;2022-08-30T07:55:27;23.80;85.70
1570;DHT22;778;50.120;8.698;2022-08-30T07:57:55;23.70;86.80
1570;DHT22;778;50.120;8.698;2022-08-30T08:00:26;23.80;85.20
1570;DHT22;778;50.120;8.698;2022-08-30T08:02:54;23.70;85.00
1570;DHT22;778;50.120;8.698;2022-08-30T08:05:23;23.70;84.70
1570;DHT22;778;50.120;8.698;2022-08-30T08:07:51;23.90;84.20
1570;DHT22;778;50.120;8.698;2022-08-30T08:10:20;24.00;82.60
1570;DHT22;778;50.120;8.698;2022-08-30T08:12:48;23.80;83.00
1570;DHT22;778;50.120;8.698;2022-08-30T08:15:18;24.00;83.40
1570;DHT22;778;50.120;8.698;2022-08-30T08:17:47;24.30;82.00
1570;DHT22;778;50.120;8.698;2022-08-30T08:20:16;24.70;80.10
1570;DHT22;778;50.120;8.698;2022-08-30T08:22:45;24.60;78.80
1570;DHT22;778;50.120;8.698;2022-08-30T08:25:13;24.50;79.70
1570;DHT22;778;50.120;8.698;2022-08-30T08:27:42;24.50;78.30
1570;DHT22;778;50.120;8.698;2022-08-30T08:30:11;24.40;78.20
1570;DHT22;778;50.120;8.698;2022-08-30T08:32:40;24.50;77.60
1570;DHT22;778;50.120;8.698;2022-08-30T08:35:10;24.70;77.10
1570;DHT22;778;50.120;8.698;2022-08-30T08:37:39;24.70;76.30
1570;DHT22;778;50.120;8.698;2022-08-30T08:40:09;24.80;75.20
1570;DHT22;778;50.120;8.698;2022-08-30T08:42:50;24.80;74.50
1570;DHT22;778;50.120;8.698;2022-08-30T08:45:34;25.10;72.90
1570;DHT22;778;50.120;8.698;2022-08-30T08:48:13;25.00;72.10
1570;DHT22;778;50.120;8.698;2022-08-30T08:50:59;25.20;71.10
1570;DHT22;778;50.120;8.698;2022-08-30T08:53:52;25.50;70.00
1570;DHT22;778;50.120;8.698;2022-08-30T08:56:23;25.60;68.50
1570;DHT22;778;50.120;8.698;2022-08-30T08:58:53;25.50;68.20
1570;DHT22;778;50.120;8.698;2022-08-30T09:01:26;25.30;68.00
1570;DHT22;778;50.120;8.698;2022-08-30T09:03:57;25.60;68.00
1570;DHT22;778;50.120;8.698;2022-08-30T09:06:41;25.80;67.30
1570;DHT22;778;50.120;8.698;2022-08-30T09:09:18;25.90;66.30
1570;DHT22;778;50.120;8.698;2022-08-30T09:11:49;25.90;65.90
1570;DHT22;778;50.120;8.698;2022-08-30T09:14:21;25.80;66.20
1570;DHT22;778;50.120;8.698;2022-08-30T09:16:59;25.40;67.30
1570;DHT22;778;50.120;8.698;2022-08-30T09:19:38;25.60;67.10
1570;DHT22;778;50.120;8.698;2022-08-30T09:22:32;25.50;66.90
1570;DHT22;778;50.120;8.698;2022-08-30T09:25:04;25.60;66.90
1570;DHT22;778;50.120;8.698;2022-08-30T09:27:35;26.20;66.00
1570;DHT22;778;50.120;8.698;2022-08-30T09:30:07;26.30;64.80
1570;DHT22;778;50.120;8.698;2022-08-30T09:32:42;26.30;64.00
1570;DHT22;778;50.120;8.698;2022-08-30T09:35:19;26.20;64.30
1570;DHT22;778;50.120;8.698;2022-08-30T09:37:54;26.50;63.20
1570;DHT22;778;50.120;8.698;2022-08-30T09:40:27;26.60;63.30
1570;DHT22;778;50.120;8.698;2022-08-30T09:43:04;26.90;62.30
1570;DHT22;778;50.120;8.698;2022-08-30T09:45:36;26.90;62.00
1570;DHT22;778;50.120;8.698;2022-08-30T09:48:37;26.90;62.30
1570;DHT22;778;50.120;8.698;2022-08-30T09:51:29;27.10;61.10
1570;DHT22;778;50.120;8.698;2022-08-30T09:54:15;27.10;59.70
1570;DHT22;778;50.120;8.698;2022-08-30T09:57:01;27.30;59.80
1570;DHT22;778;50.120;8.698;2022-08-30T09:59:42;27.60;59.40
1570;DHT22;778;50.120;8.698;2022-08-30T10:02:31;27.80;58.40
1570;DHT22;778;50.120;8.698;2022-08-30T10:05:13;27.90;56.60
1570;DHT22;778;50.120;8.698;2022-08-30T10:07:54;27.60;55.80
1570;DHT22;778;50.120;8.698;2022-08-30T10:10:32;27.50;56.40
1570;DHT22;778;50.120;8.698;2022-08-30T10:13:27;27.70;56.20
1570;DHT22;778;50.120;8.698;2022-08-30T10:16:32;27.90;55.80
1570;DHT22;778;50.120;8.698;2022-08-30T10:19:19;27.90;55.10
1570;DHT22;778;50.120;8.698;2022-08-30T10:22:01;28.10;54.50
1570;DHT22;778;50.120;8.698;2022-08-30T10:24:34;28.30;54.10
1570;DHT22;778;50.120;8.698;2022-08-30T10:27:15;28.50;53.40
1570;DHT22;778;50.120;8.698;2022-08-30T10:29:49;28.60;53.40
1570;DHT22;778;50.120;8.698;2022-08-30T10:32:24;28.70;52.80
1570;DHT22;778;50.120;8.698;2022-08-30T10:35:07;28.40;53.00
1570;DHT22;778;50.120;8.698;2022-08-30T10:37:45;28.60;52.00
1570;DHT22;778;50.120;8.698;2022-08-30T10:40:22;28.50;52.40
1570;DHT22;778;50.120;8.698;2022-08-30T10:43:20;28.70;52.00
1570;DHT22;778;50.120;8.698;2022-08-30T10:45:55;28.90;51.50
1570;DHT22;778;50.120;8.698;2022-08-30T10:48:31;28.90;50.90
1570;DHT22;778;50.120;8.698;2022-08-30T10:51:14;28.80;50.30
1570;DHT22;778;50.120;8.698;2022-08-30T10:53:50;28.90;49.70
1570;DHT22;778;50.120;8.698;2022-08-30T10:56:22;29.10;48.50
1570;DHT22;778;50.120;8.698;2022-08-30T10:58:55;29.20;48.00
1570;DHT22;778;50.120;8.698;2022-08-30T11:01:34;29.10;48.20
1570;DHT22;778;50.120;8.698;2022-08-30T11:04:27;28.80;48.80
1570;DHT22;778;50.120;8.698;2022-08-30T11:07:20;29.10;49.30
1570;DHT22;778;50.120;8.698;2022-08-30T11:10:08;29.30;48.60
1570;DHT22;778;50.120;8.698;2022-08-30T11:13:00;29.00;48.90
1570;DHT22;778;50.120;8.698;2022-08-30T11:15:35;28.90;48.50
1570;DHT22;778;50.120;8.698;2022-08-30T11:18:11;29.10;48.40
1570;DHT22;778;50.120;8.698;2022-08-30T11:20:42;29.10;48.20
1570;DHT22;778;50.120;8.698;2022-08-30T11:23:25;28.90;48.80
1570;DHT22;778;50.120;8.698;2022-08-30T11:26:01;29.30;49.00
1570;DHT22;778;50.120;8.698;2022-08-30T11:29:04;29.20;49.70
1570;DHT22;778;50.120;8.698;2022-08-30T11:31:41;29.20;49.60
1570;DHT22;778;50.120;8.698;2022-08-30T11:37:37;29.40;48.40
1570;DHT22;778;50.120;8.698;2022-08-30T11:40:10;29.60;48.60
1570;DHT22;778;50.120;8.698;2022-08-30T11:43:48;29.50;48.20
1570;DHT22;778;50.120;8.698;2022-08-30T11:46:36;29.40;48.40
1570;DHT22;778;50.120;8.698;2022-08-30T11:52:27;29.60;49.00
1570;DHT22;778;50.120;8.698;2022-08-30T11:55:24;29.60;48.20
1570;DHT22;778;50.120;8.698;2022-08-30T11:58:13;29.40;50.10
1570;DHT22;778;50.120;8.698;2022-08-30T12:01:29;29.30;49.80
1570;DHT22;778;50.120;8.698;2022-08-30T12:04:27;29.40;48.50
1570;DHT22;778;50.120;8.698;2022-08-30T12:07:06;29.40;48.50
1570;DHT22;778;50.120;8.698;2022-08-30T12:10:00;29.40;49.40
1570;DHT22;778;50.120;8.698;2022-08-30T12:12:52;29.60;47.60
1570;DHT22;778;50.120;8.698;2022-08-30T12:15:53;29.20;50.50
1570;DHT22;778;50.120;8.698;2022-08-30T12:18:34;29.30;48.70
1570;DHT22;778;50.120;8.698;2022-08-30T12:21:23;29.00;50.60
1570;DHT22;778;50.120;8.698;2022-08-30T12:24:01;28.70;50.80
1570;DHT22;778;50.120;8.698;2022-08-30T12:26:35;28.80;50.50
1570;DHT22;778;50.120;8.698;2022-08-30T12:29:11;28.90;50.30
1570;DHT22;778;50.120;8.698;2022-08-30T12:31:45;29.00;48.80
1570;DHT22;778;50.120;8.698;2022-08-30T12:34:24;28.80;49.40
1570;DHT22;778;50.120;8.698;2022-08-30T12:36:57;29.20;48.30
1570;DHT22;778;50.120;8.698;2022-08-30T12:39:33;29.10;48.30
1570;DHT22;778;50.120;8.698;2022-08-30T12:42:11;29.10;47.50
1570;DHT22;778;50.120;8.698;2022-08-30T12:44:44;28.80;50.30
1570;DHT22;778;50.120;8.698;2022-08-30T12:47:16;28.90;47.50
1570;DHT22;778;50.120;8.698;2022-08-30T12:49:47;28.70;50.80
1570;DHT22;778;50.120;8.698;2022-08-30T12:52:19;28.80;48.50
1570;DHT22;778;50.120;8.698;2022-08-30T12:55:12;28.70;49.80
1570;DHT22;778;50.120;8.698;2022-08-30T12:57:55;28.60;48.40
1570;DHT22;778;50.120;8.698;2022-08-30T13:00:29;28.90;47.80
1570;DHT22;778;50.120;8.698;2022-08-30T13:03:01;28.90;48.00
1570;DHT22;778;50.120;8.698;2022-08-30T13:05:45;28.80;47.80
1570;DHT22;778;50.120;8.698;2022-08-30T13:08:20;28.90;47.60
1570;DHT22;778;50.120;8.698;2022-08-30T13:11:01;28.80;49.00
1570;DHT22;778;50.120;8.698;2022-08-30T13:13:37;28.50;48.00
1570;DHT22;778;50.120;8.698;2022-08-30T13:16:20;28.40;49.90
1570;DHT22;778;50.120;8.698;2022-08-30T13:18:54;28.60;49.90
1570;DHT22;778;50.120;8.698;2022-08-30T13:21:27;28.30;48.40
1570;DHT22;778;50.120;8.698;2022-08-30T13:23:58;28.50;47.80
1570;DHT22;778;50.120;8.698;2022-08-30T13:26:31;28.30;50.10
1570;DHT22;778;50.120;8.698;2022-08-30T13:29:04;28.50;47.90
1570;DHT22;778;50.120;8.698;2022-08-30T13:31:36;28.60;47.70
1570;DHT22;778;50.120;8.698;2022-08-30T13:34:06;28.40;48.80
1570;DHT22;778;50.120;8.698;2022-08-30T13:36:38;28.60;48.00
1570;DHT22;778;50.120;8.698;2022-08-30T13:39:12;28.80;47.10
1570;DHT22;778;50.120;8.698;2022-08-30T13:41:47;28.70;49.60
1570;DHT22;778;50.120;8.698;2022-08-30T13:44:17;28.50;49.30
1570;DHT22;778;50.120;8.698;2022-08-30T13:46:47;28.40;48.20
1570;DHT22;778;50.120;8.698;2022-08-30T13:49:23;28.20;50.00
1570;DHT22;778;50.120;8.698;2022-08-30T13:52:15;28.50;47.50
1570;DHT22;778;50.120;8.698;2022-08-30T13:54:49;28.60;47.10
1570;DHT22;778;50.120;8.698;2022-08-30T13:57:21;28.40;48.50
1570;DHT22;778;50.120;8.698;2022-08-30T14:00:14;28.20;48.30
1570;DHT22;778;50.120;8.698;2022-08-30T14:02:46;28.10;48.40
1570;DHT22;778;50.120;8.698;2022-08-30T14:05:22;27.80;50.30
1570;DHT22;778;50.120;8.698;2022-08-30T14:08:13;27.80;49.90
1570;DHT22;778;50.120;8.698;2022-08-30T14:11:03;27.80;50.90
1570;DHT22;778;50.120;8.698;2022-08-30T14:13:34;27.80;50.90
1570;DHT22;778;50.120;8.698;2022-08-30T14:16:05;28.10;49.20
1570;DHT22;778;50.120;8.698;2022-08-30T14:18:55;28.40;48.30
1570;DHT22;778;50.120;8.698;2022-08-30T14:21:25;28.30;48.30
1570;DHT22;778;50.120;8.698;2022-08-30T14:23:54;28.20;48.10
1570;DHT22;778;50.120;8.698;2022-08-30T14:26:26;28.20;48.90
1570;DHT22;778;50.120;8.698;2022-08-30T14:29:02;28.20;49.10
1570;DHT22;778;50.120;8.698;2022-08-30T14:31:35;28.00;49.50
1570;DHT22;778;50.120;8.698;2022-08-30T14:34:05;28.10;48.10
1570;DHT22;778;50.120;8.698;2022-08-30T14:36:39;28.20;48.60
1570;DHT22;778;50.120;8.698;2022-08-30T14:39:11;28.30;49.00
1570;DHT22;778;50.120;8.698;2022-08-30T14:41:43;28.30;48.30
1570;DHT22;778;50.120;8.698;2022-08-30T14:44:15;28.30;48.40
1570;DHT22;778;50.120;8.698;2022-08-30T14:46:45;28.40;48.20
1570;DHT22;778;50.120;8.698;2022-08-30T14:49:17;28.10;49.60
1570;DHT22;778;50.120;8.698;2022-08-30T14:51:47;28.20;49.40
1570;DHT22;778;50.120;8.698;2022-08-30T14:54:19;28.40;49.00
1570;DHT22;778;50.120;8.698;2022-08-30T14:56:51;28.30;49.90
1570;DHT22;778;50.120;8.698;2022-08-30T14:59:22;28.40;49.80
1570;DHT22;778;50.120;8.698;2022-08-30T15:01:51;28.30;49.80
1570;DHT22;778;50.120;8.698;2022-08-30T15:04:20;28.30;49.00
1570;DHT22;778;50.120;8.698;2022-08-30T15:06:49;28.50;48.80
1570;DHT22;778;50.120;8.698;2022-08-30T15:09:19;28.60;48.40
1570;DHT22;778;50.120;8.698;2022-08-30T15:11:51;28.70;47.70
1570;DHT22;778;50.120;8.698;2022-08-30T15:14:23;28.80;47.50
1570;DHT22;778;50.120;8.698;2022-08-30T15:16:54;28.60;48.80
1570;DHT22;778;50.120;8.698;2022-08-30T15:19:25;28.80;47.60
1570;DHT22;778;50.120;8.698;2022-08-30T15:21:58;28.70;47.40
1570;DHT22;778;50.120;8.698;2022-08-30T15:24:29;28.60;47.30
1570;DHT22;778;50.120;8.698;2022-08-30T15:26:59;28.60;47.40
1570;DHT22;778;50.120;8.698;2022-08-30T15:29:29;28.60;47.80
1570;DHT22;778;50.120;8.698;2022-08-30T15:31:58;28.60;48.20
1570;DHT22;778;50.120;8.698;2022-08-30T15:34:28;28.30;49.70
1570;DHT22;778;50.120;8.698;2022-08-30T15:36:57;28.10;49.20
1570;DHT22;778;50.120;8.698;2022-08-30T15:39:26;28.00;49.80
1570;DHT22;778;50.120;8.698;2022-08-30T15:41:55;28.20;49.20
1570;DHT22;778;50.120;8.698;2022-08-30T15:44:28;28.30;49.70
1570;DHT22;778;50.120;8.698;2022-08-30T15:46:57;28.10;49.70
1570;DHT22;778;50.120;8.698;2022-08-30T15:49:27;28.20;48.60
1570;DHT22;778;50.120;8.698;2022-08-30T15:51:59;28.40;48.70
1570;DHT22;778;50.120;8.698;2022-08-30T15:54:28;28.40;48.20
1570;DHT22;778;50.120;8.698;2022-08-30T15:56:58;28.50;48.00
1570;DHT22;778;50.120;8.698;2022-08-30T15:59:29;28.50;48.40
1570;DHT22;778;50.120;8.698;2022-08-30T16:01:58;28.50;47.90
1570;DHT22;778;50.120;8.698;2022-08-30T16:04:27;28.40;49.50
1570;DHT22;778;50.120;8.698;2022-08-30T16:06:56;28.10;50.70
1570;DHT22;778;50.120;8.698;2022-08-30T16:09:24;27.90;50.60
1570;DHT22;778;50.120;8.698;2022-08-30T16:11:58;27.80;49.80
1570;DHT22;778;50.120;8.698;2022-08-30T16:14:27;28.10;49.20
1570;DHT22;778;50.120;8.698;2022-08-30T16:16:58;28.00;51.20
1570;DHT22;778;50.120;8.698;2022-08-30T16:19:26;28.00;49.30
1570;DHT22;778;50.120;8.698;2022-08-30T16:21:55;27.90;49.20
1570;DHT22;778;50.120;8.698;2022-08-30T16:24:24;27.90;49.00
1570;DHT22;778;50.120;8.698;2022-08-30T16:26:53;27.90;48.80
1570;DHT22;778;50.120;8.698;2022-08-30T16:29:22;27.70;50.10
1570;DHT22;778;50.120;8.698;2022-08-30T16:31:50;27.60;51.00
1570;DHT22;778;50.120;8.698;2022-08-30T16:34:20;27.60;50.00
1570;DHT22;778;50.120;8.698;2022-08-30T16:36:51;27.50;51.50
1570;DHT22;778;50.120;8.698;2022-08-30T16:39:20;27.40;51.60
1570;DHT22;778;50.120;8.698;2022-08-30T16:41:48;27.40;51.60
1570;DHT22;778;50.120;8.698;2022-08-30T16:44:17;27.50;49.80
1570;DHT22;778;50.120;8.698;2022-08-30T16:46:45;27.50;49.90
1570;DHT22;778;50.120;8.698;2022-08-30T16:49:21;27.50;51.00
1570;DHT22;778;50.120;8.698;2022-08-30T16:51:51;27.40;50.80
1570;DHT22;778;50.120;8.698;2022-08-30T16:54:20;27.40;51.40
1570;DHT22;778;50.120;8.698;2022-08-30T16:56:49;27.30;52.50
1570;DHT22;778;50.120;8.698;2022-08-30T16:59:18;27.20;50.70
1570;DHT22;778;50.120;8.698;2022-08-30T17:01:47;27.40;50.90
1570;DHT22;778;50.120;8.698;2022-08-30T17:04:17;27.50;50.10